• Join FlightAware (Why Join?)
  • Login
  • US Flag 
12:10AM EST


 

Airport Tracker/Info


-or-


 

Live Flight TrackerFlight Track Log ✈ SWA868 ✈ 26-Apr-2013 ✈ KTPA - KMHT

Flight Track Log - Related Links

Times and Time Zones

All times are in EDT time to prevent confusion due to time zone crossing. See the SWA868 flight status page for this flight to view local times or setup timezone preferences in your user account.

Time Position Orientation Groundspeed Altitude Reporting Facility
EDT Latitude Longitude Course Direction KTS MPH feet Rate Location/Type
09:15PM 28.0000 -82.5333 North 151 174 1,000  Level Tampa TRACON
09:16PM 28.0667 -82.5333 360° North 214 246 3,500 2,340 Climbing Tampa TRACON
09:18PM 28.1683 -82.5489 352° North 239 275 7,800 2,880 Climbing Jacksonville Center
09:19PM 28.2456 -82.5628 351° North 253 291 11,000 2,700 Climbing Jacksonville Center
09:20PM 28.3394 -82.5767 353° North 299 344 13,300 2,760 Climbing Jacksonville Center
09:21PM 28.1874 -82.5667 North  Level FlightAware Approximate
09:21PM 28.4375 -82.5833 357° North 333 383 16,600  Level Jacksonville Center
09:22PM 28.5419 -82.5853 359° North 355 409 18,700 2,400 Climbing Jacksonville Center
09:23PM 28.6525 -82.5897 358° North 377 434 21,500 2,580 Climbing Jacksonville Center
09:24PM 28.7506 -82.6014 354° North 388 447 23,900 2,220 Climbing Jacksonville Center
09:25PM 28.8675 -82.6175 353° North 402 463 26,000 1,980 Climbing Jacksonville Center
09:26PM 28.9822 -82.6314 354° North 408 470 27,900 1,800 Climbing Jacksonville Center
09:27PM 29.1056 -82.6503 352° North 420 483 29,700 1,920 Climbing Jacksonville Center
09:28PM 29.2225 -82.6667 353° North 425 489 31,800 2,040 Climbing Jacksonville Center
09:29PM 29.3394 -82.6806 354° North 425 489 33,800 1,800 Climbing Jacksonville Center
09:30PM 29.4564 -82.6922 355° North 420 483 35,400 1,500 Climbing Jacksonville Center
09:31PM 29.5900 -82.6944 359° North 425 489 36,900 1,200 Climbing Jacksonville Center
09:32PM 29.7069 -82.6964 359° North 425 489 37,900 1,020 Climbing Jacksonville Center
09:33PM 29.8258 -82.6939 North 419 482 39,000 540 Climbing Jacksonville Center
09:34PM 29.9447 -82.6936 360° North 419 482 39,000  Level Jacksonville Center
09:35PM 30.0514 -82.6886 North 419 482 39,000  Level Jacksonville Center
09:36PM 30.1703 -82.6883 360° North 419 482 39,000  Level Jacksonville Center
09:37PM 30.2872 -82.6856 North 419 482 39,000  Level Jacksonville Center
09:38PM 30.4019 -82.6856 360° North 419 482 39,000  Level Jacksonville Center
09:39PM 30.5211 -82.6781 North 419 482 39,000  Level Jacksonville Center
09:40PM 30.6442 -82.6222 21° North 425 489 39,000  Level Jacksonville Center
09:41PM 30.7608 -82.5661 22° Northeast 430 495 39,000  Level Jacksonville Center
09:42PM 30.8736 -82.5103 23° Northeast 435 501 39,000  Level Jacksonville Center
09:43PM 30.9714 -82.4614 23° Northeast 430 495 39,000  Level Jacksonville Center
09:44PM 31.0842 -82.4075 22° Northeast 430 495 39,000  Level Jacksonville Center
09:45PM 31.1925 -82.3533 23° Northeast 430 495 39,000  Level Jacksonville Center
09:46PM 31.3028 -82.3017 22° Northeast 430 495 39,000  Level Jacksonville Center
09:47PM 31.4111 -82.2500 22° Northeast 425 489 39,000  Level Jacksonville Center
09:48PM 31.5194 -82.1956 23° Northeast 425 489 39,000  Level Jacksonville Center
09:49PM 31.6422 -82.1311 24° Northeast 420 483 39,000  Level Jacksonville Center
09:50PM 31.7525 -82.0767 23° Northeast 426 490 39,000  Level Jacksonville Center
09:51PM 31.8567 -82.0267 22° Northeast 433 498 39,000  Level Jacksonville Center
09:52PM 31.9772 -81.9644 24° Northeast 433 498 39,000  Level Jacksonville Center
09:53PM 32.0917 -81.9142 20° North 433 498 39,000  Level Jacksonville Center
09:54PM 32.1936 -81.8664 22° Northeast 433 498 39,000  Level Jacksonville Center
09:55PM 32.3142 -81.8086 22° Northeast 433 498 39,000  Level Jacksonville Center
09:56PM 32.4244 -81.7581 21° North 427 491 39,000  Level Jacksonville Center
09:57PM 32.5264 -81.7075 23° Northeast 432 497 39,000  Level Jacksonville Center
09:58PM 32.6403 -81.6219 32° Northeast 432 497 39,000  Level Jacksonville Center
09:59PM 32.7314 -81.5417 37° Northeast 442 509 39,000  Level Jacksonville Center
10:00PM 32.8369 -81.4561 34° Northeast 447 514 39,000  Level Jacksonville Center
10:01PM 32.9403 -81.3678 36° Northeast 447 514 39,000  Level Jacksonville Center
10:02PM 33.0414 -81.2819 35° Northeast 447 514 39,000  Level Jacksonville Center
10:03PM 33.1467 -81.1931 35° Northeast 447 514 39,000  Level Jacksonville Center
10:04PM 33.2478 -81.1067 36° Northeast 447 514 39,000  Level Jacksonville Center
10:05PM 33.3508 -81.0203 35° Northeast 447 514 39,000  Level Jacksonville Center
10:06PM 33.4539 -80.9333 35° Northeast 447 514 39,000  Level Jacksonville Center
10:07PM 33.5486 -80.8514 36° Northeast 438 504 39,000  Level Jacksonville Center
10:08PM 33.6433 -80.7694 36° Northeast 427 491 39,000  Level Jacksonville Center
10:09PM 33.7400 -80.6872 35° Northeast 427 491 39,000  Level Jacksonville Center
10:10PM 33.8344 -80.6050 36° Northeast 422 486 39,000  Level Jacksonville Center
10:11PM 33.9392 -80.5144 36° Northeast 422 486 39,000  Level Jacksonville Center
10:12PM 34.0294 -80.4344 36° Northeast 422 486 39,000  Level Jacksonville Center
10:13PM 34.1258 -80.3539 35° Northeast 422 486 39,000  Level Jacksonville Center
10:14PM 34.2181 -80.2708 37° Northeast 422 486 39,000  Level Jacksonville Center
10:15PM 34.3103 -80.1850 38° Northeast 417 480 39,000  Level Jacksonville Center
10:17PM 34.4600 -80.0553 36° Northeast 415 478 39,000  Level Washington Center
10:18PM 34.5503 -79.9794 35° Northeast 421 484 39,000  Level Washington Center
10:19PM 34.6389 -79.8958 38° Northeast 421 484 39,000  Level Washington Center
10:20PM 34.7336 -79.8150 35° Northeast 415 478 39,000  Level Washington Center
10:21PM 34.8283 -79.7314 36° Northeast 415 478 39,000  Level Washington Center
10:22PM 34.9208 -79.6475 37° Northeast 415 478 39,000  Level Washington Center
10:23PM 35.0136 -79.5633 37° Northeast 415 478 39,000  Level Washington Center
10:24PM 35.1100 -79.4817 35° Northeast 415 478 39,000  Level Washington Center
10:25PM 35.2025 -79.3972 37° Northeast 415 478 39,000  Level Washington Center
10:26PM 35.2950 -79.3125 37° Northeast 415 478 39,000  Level Washington Center
10:27PM 35.4022 -79.2181 36° Northeast 420 483 39,000  Level Washington Center
10:28PM 35.4881 -79.1403 36° Northeast 420 483 39,000  Level Washington Center
10:29PM 35.5886 -79.0503 36° Northeast 415 478 39,000  Level Washington Center
10:30PM 35.6786 -78.9647 38° Northeast 415 478 39,000  Level Washington Center
10:31PM 35.7731 -78.8792 36° Northeast 415 478 39,000  Level Washington Center
10:32PM 35.8650 -78.7958 36° Northeast 415 478 39,000  Level Washington Center
10:33PM 35.9589 -78.7125 36° Northeast 415 478 39,000  Level Washington Center
10:34PM 36.0528 -78.6289 36° Northeast 415 478 39,000  Level Washington Center
10:35PM 36.1467 -78.5475 35° Northeast 415 478 39,000  Level Washington Center
10:36PM 36.2428 -78.4636 35° Northeast 415 478 39,000  Level Washington Center
10:37PM 36.3364 -78.3794 36° Northeast 415 478 39,000  Level Washington Center
10:38PM 36.4322 -78.2922 36° Northeast 415 478 39,000  Level Washington Center
10:39PM 36.5281 -78.2078 35° Northeast 415 478 39,000  Level Washington Center
10:40PM 36.6089 -78.1328 37° Northeast 410 472 39,000  Level Washington Center
10:41PM 36.7047 -78.0453 36° Northeast 410 472 39,000  Level Washington Center
10:42PM 36.8003 -77.9575 36° Northeast 415 478 39,000  Level Washington Center
10:43PM 36.8939 -77.8694 37° Northeast 415 478 39,000  Level Washington Center
10:44PM 36.9872 -77.7786 38° Northeast 415 478 39,000  Level Washington Center
10:45PM 37.0828 -77.6903 36° Northeast 421 484 39,000  Level Washington Center
10:46PM 37.1783 -77.5992 37° Northeast 421 484 39,000  Level Washington Center
10:47PM 37.2714 -77.5100 37° Northeast 421 484 39,000  Level Washington Center
10:48PM 37.3667 -77.4183 37° Northeast 421 484 39,000  Level Washington Center
10:49PM 37.4619 -77.3292 37° Northeast 421 484 39,000  Level Washington Center
10:50PM 37.5572 -77.2369 37° Northeast 421 484 39,000  Level Washington Center
10:51PM 37.6542 -77.1447 37° Northeast 426 490 39,000  Level Washington Center
10:52PM 37.7494 -77.0494 38° Northeast 426 490 39,000  Level Washington Center
10:53PM 37.8422 -76.9564 38° Northeast 426 490 39,000  Level Washington Center
10:54PM 37.9392 -76.8661 36° Northeast 426 490 39,000  Level Washington Center
10:55PM 38.0339 -76.7703 39° Northeast 426 490 39,000  Level Washington Center
10:56PM 38.1308 -76.6767 37° Northeast 426 490 39,000  Level Washington Center
10:57PM 38.2256 -76.5803 39° Northeast 432 497 39,000  Level Washington Center
10:58PM 38.3178 -76.4889 38° Northeast 427 491 39,000  Level Washington Center
10:59PM 38.4125 -76.3972 37° Northeast 427 491 39,000  Level Washington Center
11:00PM 38.5067 -76.3028 38° Northeast 427 491 39,000  Level Washington Center
11:01PM 38.6011 -76.2081 38° Northeast 427 491 39,000  Level Washington Center
11:02PM 38.7122 -76.1053 36° Northeast 434 499 39,000  Level Washington Center
11:03PM 38.8042 -76.0072 40° Northeast 434 499 39,000  Level Washington Center
11:04PM 38.9003 -75.9117 38° Northeast 439 505 39,000  Level Washington Center
11:05PM 38.9964 -75.8161 38° Northeast 439 505 39,000  Level Washington Center
11:06PM 39.0925 -75.7200 38° Northeast 439 505 39,000  Level Washington Center
11:07PM 39.1883 -75.6183 39° Northeast 444 511 39,000  Level Washington Center
11:08PM 39.2822 -75.5192 39° Northeast 444 511 39,000 -360 Level Washington Center
11:09PM 39.3781 -75.4225 38° Northeast 439 505 38,400 -840 Descending Washington Center
11:10PM 39.4736 -75.3253 38° Northeast 444 511 37,400 -960 Descending Washington Center
11:11PM 39.5714 -75.2253 38° Northeast 444 511 36,500 -960 Descending Washington Center
11:12PM 39.6689 -75.1197 40° Northeast 444 511 35,600 -480 Descending Washington Center
11:14PM 39.8750 -74.9419 33° Northeast 425 489 35,000 -240 Descending New York Center
11:15PM 39.9794 -74.8233 41° Northeast 425 489 35,000  Level New York Center
11:16PM 40.0747 -74.7747 21° North 404 465 35,000  Level New York Center
11:17PM 40.1825 -74.7347 16° North 404 465 35,000  Level New York Center
11:18PM 40.2922 -74.6947 16° North 404 465 35,000  Level New York Center
11:19PM 40.4039 -74.6547 15° North 404 465 35,000  Level New York Center
11:20PM 40.5156 -74.6175 14° North 404 465 35,000  Level New York Center
11:21PM 40.6272 -74.5772 15° North 409 471 35,000  Level New York Center
11:22PM 40.7392 -74.5369 15° North 409 471 35,000  Level New York Center
11:24PM 40.9589 -74.4547 16° North 409 471 35,000  Level Boston Center
11:25PM 41.0700 -74.4169 14° North 409 471 35,000  Level Boston Center
11:26PM 41.2022 -74.3769 13° North 416 479 35,000  Level Boston Center
11:27PM 41.3008 -74.3383 16° North 416 479 35,000  Level Boston Center
11:28PM 41.4161 -74.2947 16° North 416 479 35,000  Level Boston Center
11:29PM 41.5461 -74.2514 14° North 421 484 35,000  Level Boston Center
11:30PM 41.6592 -74.2072 16° North 421 484 35,000  Level Boston Center
11:31PM 41.7725 -74.1658 15° North 421 484 35,000 -480 Level Boston Center
11:32PM 41.8750 -74.1325 14° North 421 484 34,100 -900 Descending Boston Center
11:33PM 41.9967 -74.0883 15° North 416 479 33,200 -960 Descending Boston Center
11:34PM 42.1097 -74.0436 16° North 421 484 32,200 -1,080 Descending Boston Center
11:35PM 42.2228 -74.0044 14° North 421 484 31,100 -1,080 Descending Boston Center
11:36PM 42.3319 -73.9622 16° North 416 479 30,100 -900 Descending Boston Center
11:37PM 42.3933 -73.8822 44° Northeast 388 447 29,300 -1,020 Descending Boston Center
11:38PM 42.4372 -73.7003 72° East 377 434 28,100 -1,140 Descending Boston Center
11:39PM 42.4742 -73.5547 71° East 382 440 27,100 -600 Descending Boston Center
11:40PM 42.5108 -73.4117 71° East 393 452 27,000 -60 Descending Boston Center
11:41PM 42.5475 -73.2603 72° East 409 471 27,000 -900 Level Boston Center
11:42PM 42.5861 -73.1111 71° East 414 476 25,300 -1,500 Descending Boston Center
11:43PM 42.6222 -72.9706 71° East 402 463 24,000 -900 Descending Boston Center
11:44PM 42.6581 -72.8381 70° East 391 450 23,600 -1,500 Descending Boston Center
11:45PM 42.6919 -72.6944 72° East 386 444 21,000 -2,700 Descending Boston Center
11:46PM 42.7275 -72.5617 70° East 378 435 18,200 -2,520 Descending Boston Center
11:47PM 42.7631 -72.4203 71° East 378 435 16,000 -2,280 Descending Boston Center
11:48PM 42.7942 -72.2817 73° East 378 435 13,700 -1,620 Descending Boston Center
11:49PM 42.8022 -72.1714 84° East 353 406 12,800 -1,440 Descending Boston Center
11:50PM 42.8061 -72.0411 88° East 318 366 10,900 -1,740 Descending Boston Center
11:51PM 42.7994 -71.9392 95° East 306 352 9,400 -1,260 Descending Boston Center
11:52PM 42.7928 -71.8261 95° East 281 323 8,400 -1,440 Descending Boston Center
11:53PM 42.7881 -71.7383 94° East 262 302 6,600 -1,980 Descending Boston Center
11:54PM 42.7811 -71.6283 95° East 262 302 4,500 -1,500 Descending Boston Center
11:55PM 42.7742 -71.5464 97° East 246 283 3,700 -720 Descending Boston Center
11:56PM 42.7775 -71.4586 87° East 214 246 3,100 -900 Descending Boston Center
11:57PM 42.7958 -71.4017 66° East 182 209 2,000 -540 Descending Boston Center
11:58PM 42.8394 -71.3783 21° North 155 178 2,100 -360 Climbing Boston Center
11:59PM 42.8750 -71.4003 336° Northwest 140 161 1,300 -840 Descending Boston Center
12:00AM 42.9128 -71.4225 337° Northwest 145 167 500 14,820 Descending Boston Center
12:01AM 42.9461 -71.4417 337° Northwest 145 167 31,000 15,240 Climbing Boston Center
12:02AM 42.9819 -71.4611 338° Northwest 145 167 31,000  Level Boston Center